createdAt,value
2018-09-05T00:01:17.883Z,101511.87
2018-09-05T00:03:47.007Z,101511.03
2018-09-05T00:06:16.049Z,101520.83
2018-09-05T00:08:45.092Z,101518.36
2018-09-05T00:11:14.492Z,101514.01
2018-09-05T00:13:43.591Z,101513.74
2018-09-05T00:16:12.741Z,101515.37
2018-09-05T00:18:41.841Z,101515.93
2018-09-05T00:21:10.797Z,101517.30
2018-09-05T00:23:39.736Z,101512.89
2018-09-05T00:26:08.677Z,101509.08
2018-09-05T00:28:37.646Z,101508.02
2018-09-05T00:31:09.747Z,101503.94
2018-09-05T00:33:38.823Z,101500.62
2018-09-05T00:36:08.224Z,101494.80
2018-09-05T00:38:37.336Z,101493.16
2018-09-05T00:41:06.350Z,101497.03
2018-09-05T00:43:35.349Z,101491.63
2018-09-05T00:46:04.301Z,101486.69
2018-09-05T00:48:33.356Z,101491.84
2018-09-05T00:51:02.338Z,101494.22
2018-09-05T00:53:31.283Z,101492.14
2018-09-05T00:56:00.347Z,101494.00
2018-09-05T00:58:29.297Z,101494.00
2018-09-05T01:00:58.381Z,101500.02
2018-09-05T01:03:27.375Z,101508.16
2018-09-05T01:05:56.429Z,101501.64
2018-09-05T01:08:25.464Z,101506.22
2018-09-05T01:10:54.450Z,101512.09
2018-09-05T01:13:23.429Z,101508.61
2018-09-05T01:15:52.394Z,101514.06
2018-09-05T01:18:21.376Z,101514.34
2018-09-05T01:20:50.375Z,101515.17
2018-09-05T01:23:19.392Z,101511.90
2018-09-05T01:25:48.350Z,101503.68
2018-09-05T01:28:17.370Z,101508.55
2018-09-05T01:30:46.679Z,101505.39
2018-09-05T01:33:15.660Z,101507.28
2018-09-05T01:35:44.850Z,101503.70
2018-09-05T01:38:14.102Z,101505.84
2018-09-05T01:40:43.006Z,101503.97
2018-09-05T01:43:11.939Z,101503.41
2018-09-05T01:45:41.110Z,101497.47
2018-09-05T01:48:10.204Z,101490.84
2018-09-05T01:50:43.825Z,101494.54
2018-09-05T01:53:13.447Z,101495.05
2018-09-05T01:55:42.441Z,101489.61
2018-09-05T01:58:11.453Z,101484.31
2018-09-05T02:00:40.431Z,101485.08
2018-09-05T02:03:09.493Z,101485.34
2018-09-05T02:05:38.414Z,101483.73
2018-09-05T02:08:07.365Z,101481.75
2018-09-05T02:10:36.322Z,101485.09
2018-09-05T02:13:05.328Z,101488.77
2018-09-05T02:15:34.666Z,101490.63
2018-09-05T02:18:03.878Z,101486.88
2018-09-05T02:20:32.880Z,101494.13
2018-09-05T02:23:01.990Z,101494.75
2018-09-05T02:25:31.031Z,101493.72
2018-09-05T02:28:00.091Z,101490.48
2018-09-05T02:30:29.112Z,101489.10
2018-09-05T02:32:58.329Z,101487.14
2018-09-05T02:35:27.386Z,101484.47
2018-09-05T02:37:56.733Z,101491.06
2018-09-05T02:40:25.851Z,101492.98
2018-09-05T02:42:54.710Z,101489.16
2018-09-05T02:45:23.818Z,101489.25
2018-09-05T02:47:52.900Z,101486.88
2018-09-05T02:50:21.864Z,101490.69
2018-09-05T02:52:50.892Z,101489.25
2018-09-05T02:55:25.309Z,101486.36
2018-09-05T02:57:54.276Z,101490.52
2018-09-05T03:00:23.245Z,101490.81
2018-09-05T03:02:52.294Z,101489.67
2018-09-05T03:05:21.215Z,101488.32
2018-09-05T03:07:50.150Z,101488.91
2018-09-05T03:10:19.549Z,101494.06
2018-09-05T03:12:48.433Z,101494.55
2018-09-05T03:15:17.487Z,101489.95
2018-09-05T03:17:46.489Z,101496.67
2018-09-05T03:20:15.446Z,101498.28
2018-09-05T03:22:44.424Z,101496.17
2018-09-05T03:25:13.482Z,101503.19
2018-09-05T03:27:42.531Z,101498.90
2018-09-05T03:30:11.816Z,101503.20
2018-09-05T03:32:40.897Z,101501.19
2018-09-05T03:35:09.775Z,101497.81
2018-09-05T03:37:38.719Z,101500.56
2018-09-05T03:40:07.618Z,101500.26
2018-09-05T03:42:36.621Z,101498.64
2018-09-05T03:45:05.659Z,101508.36
2018-09-05T03:47:34.709Z,101505.18
2018-09-05T03:50:03.625Z,101511.45
2018-09-05T03:52:33.123Z,101506.23
2018-09-05T03:55:02.217Z,101510.95
2018-09-05T03:57:31.239Z,101506.89
2018-09-05T04:00:00.244Z,101507.18
2018-09-05T04:02:29.174Z,101516.02
2018-09-05T04:04:59.034Z,101511.69
2018-09-05T04:07:28.616Z,101511.27
2018-09-05T04:09:57.647Z,101508.75
2018-09-05T04:12:27.066Z,101516.92
2018-09-05T04:14:56.339Z,101512.95
2018-09-05T04:17:25.545Z,101517.31
2018-09-05T04:19:54.625Z,101515.18
2018-09-05T04:22:23.559Z,101517.64
2018-09-05T04:24:52.531Z,101512.68
2018-09-05T04:27:21.497Z,101516.52
2018-09-05T04:29:50.472Z,101513.88
2018-09-05T04:32:19.369Z,101514.45
2018-09-05T04:34:48.292Z,101515.22
2018-09-05T04:37:17.255Z,101527.39
2018-09-05T04:39:46.222Z,101527.66
2018-09-05T04:42:15.152Z,101531.81
2018-09-05T04:44:44.164Z,101534.11
2018-09-05T04:47:13.145Z,101530.61
2018-09-05T04:49:42.055Z,101533.64
2018-09-05T04:52:11.010Z,101531.81
2018-09-05T04:54:39.982Z,101536.63
2018-09-05T04:57:08.981Z,101543.16
2018-09-05T04:59:37.952Z,101541.17
2018-09-05T05:02:06.866Z,101540.15
2018-09-05T05:04:35.885Z,101540.60
2018-09-05T05:07:04.838Z,101547.70
2018-09-05T05:09:33.732Z,101551.15
2018-09-05T05:12:02.737Z,101541.70
2018-09-05T05:14:31.652Z,101544.14
2018-09-05T05:17:00.582Z,101541.67
2018-09-05T05:19:29.588Z,101545.97
2018-09-05T05:21:58.995Z,101547.32
2018-09-05T05:24:28.003Z,101543.08
2018-09-05T05:26:56.994Z,101546.53
2018-09-05T05:29:26.109Z,101536.58
2018-09-05T05:31:55.034Z,101543.55
2018-09-05T05:34:24.006Z,101543.09
2018-09-05T05:36:52.899Z,101548.03
2018-09-05T05:39:21.921Z,101548.05
2018-09-05T05:41:50.825Z,101549.80
2018-09-05T05:44:19.785Z,101550.60
2018-09-05T05:46:48.810Z,101554.25
2018-09-05T05:49:17.733Z,101544.14
2018-09-05T05:51:46.642Z,101546.34
2018-09-05T05:54:15.547Z,101555.08
2018-09-05T05:56:44.519Z,101558.71
2018-09-05T05:59:13.438Z,101571.52
2018-09-05T06:01:42.423Z,101571.78
2018-09-05T06:04:11.411Z,101573.27
2018-09-05T06:06:40.341Z,101573.94
2018-09-05T06:09:10.350Z,101571.41
2018-09-05T06:11:39.392Z,101571.29
2018-09-05T06:14:08.375Z,101572.35
2018-09-05T06:16:37.990Z,101575.02
2018-09-05T06:19:06.877Z,101578.56
2018-09-05T06:21:35.815Z,101586.03
2018-09-05T06:24:05.149Z,101582.51
2018-09-05T06:26:34.034Z,101580.05
2018-09-05T06:29:02.979Z,101574.14
2018-09-05T06:31:31.957Z,101573.77
2018-09-05T06:34:00.865Z,101574.42
2018-09-05T06:36:29.833Z,101571.55
2018-09-05T06:38:59.433Z,101569.95
2018-09-05T06:41:28.319Z,101570.04
2018-09-05T06:43:57.409Z,101564.08
2018-09-05T06:46:26.402Z,101574.59
2018-09-05T06:48:55.343Z,101572.53
2018-09-05T06:51:24.398Z,101581.50
2018-09-05T06:53:53.414Z,101582.61
2018-09-05T06:56:22.382Z,101579.97
2018-09-05T06:58:51.408Z,101587.17
2018-09-05T07:01:20.428Z,101588.23
2018-09-05T07:03:49.600Z,101594.84
2018-09-05T07:06:18.551Z,101598.26
2018-09-05T07:08:47.521Z,101601.48
2018-09-05T07:11:16.454Z,101603.70
2018-09-05T07:13:45.441Z,101601.82
2018-09-05T07:16:14.454Z,101607.81
2018-09-05T07:18:43.381Z,101604.59
2018-09-05T07:21:12.381Z,101598.60
2018-09-05T07:23:41.480Z,101601.37
2018-09-05T07:26:10.405Z,101600.04
2018-09-05T07:28:39.341Z,101603.13
2018-09-05T07:31:08.386Z,101611.02
2018-09-05T07:33:37.306Z,101615.65
2018-09-05T07:36:06.231Z,101604.55
2018-09-05T07:38:35.181Z,101614.11
2018-09-05T07:41:04.156Z,101613.36
2018-09-05T07:43:33.142Z,101615.00
2018-09-05T07:46:02.032Z,101609.17
2018-09-05T07:48:31.009Z,101607.50
2018-09-05T07:51:00.059Z,101618.20
2018-09-05T07:53:28.904Z,101615.44
2018-09-05T07:55:58.006Z,101618.41
2018-09-05T07:58:27.230Z,101621.64
2018-09-05T08:00:56.214Z,101623.04
2018-09-05T08:03:25.154Z,101627.13
2018-09-05T08:05:54.595Z,101625.58
2018-09-05T08:08:23.606Z,101628.27
2018-09-05T08:10:52.676Z,101627.80
2018-09-05T08:13:21.607Z,101625.55
2018-09-05T08:15:50.517Z,101621.53
2018-09-05T08:18:19.466Z,101618.26
2018-09-05T08:20:48.364Z,101622.62
2018-09-05T08:23:17.437Z,101625.52
2018-09-05T08:25:46.363Z,101625.04
2018-09-05T08:28:15.277Z,101628.89
2018-09-05T08:30:44.513Z,101621.47
2018-09-05T08:33:13.408Z,101620.72
2018-09-05T08:35:42.578Z,101615.84
2018-09-05T08:38:11.334Z,101618.64
2018-09-05T08:40:40.212Z,101616.19
2018-09-05T08:43:09.130Z,101617.98
2018-09-05T08:45:38.272Z,101620.73
2018-09-05T08:48:07.006Z,101614.88
2018-09-05T08:50:35.940Z,101611.62
2018-09-05T08:53:05.168Z,101617.47
2018-09-05T08:55:34.071Z,101613.53
2018-09-05T08:58:03.006Z,101613.03
2018-09-05T09:00:31.909Z,101618.96
2018-09-05T09:03:00.911Z,101617.85
2018-09-05T09:05:29.884Z,101610.52
2018-09-05T09:07:58.858Z,101619.47
2018-09-05T09:10:27.826Z,101617.28
2018-09-05T09:12:56.787Z,101614.13
2018-09-05T09:15:25.698Z,101606.80
2018-09-05T09:17:54.655Z,101608.41
2018-09-05T09:20:23.890Z,101609.28
2018-09-05T09:22:52.825Z,101606.56
2018-09-05T09:25:21.744Z,101607.12
2018-09-05T09:27:50.717Z,101606.30
2018-09-05T09:30:19.623Z,101597.03
2018-09-05T09:32:48.613Z,101602.49
2018-09-05T09:35:17.537Z,101596.55
2018-09-05T09:37:46.458Z,101594.64
2018-09-05T09:40:15.428Z,101600.09
2018-09-05T09:42:44.391Z,101594.09
2018-09-05T09:45:13.279Z,101598.47
2018-09-05T09:47:42.201Z,101591.36
2018-09-05T09:50:11.135Z,101597.37
2018-09-05T09:52:40.056Z,101589.20
2018-09-05T09:55:10.070Z,101587.83
2018-09-05T09:57:39.029Z,101588.36
2018-09-05T10:00:08.165Z,101581.01
2018-09-05T10:02:42.744Z,101575.80
2018-09-05T10:05:17.147Z,101583.95
2018-09-05T10:07:51.438Z,101574.35
2018-09-05T10:10:25.820Z,101576.36
2018-09-05T10:13:00.125Z,101574.72
2018-09-05T10:15:34.372Z,101575.48
2018-09-05T10:18:08.663Z,101574.67
2018-09-05T10:20:37.660Z,101558.56
2018-09-05T10:23:06.610Z,101559.91
2018-09-05T10:25:35.578Z,101560.17
2018-09-05T10:28:04.810Z,101560.76
2018-09-05T10:30:33.754Z,101560.42
2018-09-05T10:35:42.368Z,101559.41
2018-09-05T10:38:11.286Z,101549.61
2018-09-05T10:40:40.229Z,101548.72
2018-09-05T10:43:09.186Z,101545.15
2018-09-05T10:45:38.081Z,101541.55
2018-09-05T10:48:06.986Z,101543.42
2018-09-05T10:50:35.984Z,101541.66
2018-09-05T10:53:05.109Z,101527.69
2018-09-05T10:55:34.059Z,101528.89
2018-09-05T10:58:03.050Z,101526.41
2018-09-05T11:00:31.979Z,101518.34
2018-09-05T11:03:00.960Z,101519.64
2018-09-05T11:05:29.893Z,101523.39
2018-09-05T11:07:59.129Z,101517.36
2018-09-05T11:10:28.064Z,101511.36
2018-09-05T11:12:57.001Z,101513.51
2018-09-05T11:15:25.974Z,101516.39
2018-09-05T11:17:54.974Z,101515.99
2018-09-05T11:20:24.059Z,101514.56
2018-09-05T11:22:52.958Z,101514.50
2018-09-05T11:25:21.932Z,101502.83
2018-09-05T11:27:50.864Z,101498.67
2018-09-05T11:30:19.815Z,101495.08
2018-09-05T11:32:48.744Z,101490.55
2018-09-05T11:35:17.702Z,101486.44
2018-09-05T11:37:46.617Z,101488.44
2018-09-05T11:40:15.538Z,101481.17
2018-09-05T11:42:44.582Z,101486.11
2018-09-05T11:45:13.490Z,101477.07
2018-09-05T11:47:42.440Z,101473.80
2018-09-05T11:50:11.599Z,101479.16
2018-09-05T11:52:40.503Z,101478.84
2018-09-05T11:55:09.514Z,101474.45
2018-09-05T11:57:38.446Z,101474.72
2018-09-05T12:00:07.428Z,101477.25
2018-09-05T12:02:36.687Z,101472.03
2018-09-05T12:05:05.704Z,101471.78
2018-09-05T12:07:34.549Z,101468.38
2018-09-05T12:10:03.518Z,101464.06
2018-09-05T12:12:32.465Z,101467.55
2018-09-05T12:15:01.434Z,101457.52
2018-09-05T12:17:30.314Z,101467.25
2018-09-05T12:19:59.338Z,101462.15
2018-09-05T12:22:28.306Z,101462.38
2018-09-05T12:24:57.316Z,101463.14
2018-09-05T12:27:26.247Z,101464.00
2018-09-05T12:29:55.237Z,101456.72
2018-09-05T12:32:24.127Z,101458.03
2018-09-05T12:34:53.101Z,101449.25
2018-09-05T12:37:22.093Z,101449.30
2018-09-05T12:39:51.024Z,101442.86
2018-09-05T12:42:19.999Z,101447.11
2018-09-05T12:44:49.072Z,101443.78
2018-09-05T12:47:18.170Z,101432.74
2018-09-05T12:49:47.098Z,101434.59
2018-09-05T12:52:16.004Z,101437.36
2018-09-05T12:54:45.217Z,101435.11
2018-09-05T12:57:14.161Z,101435.53
2018-09-05T12:59:43.077Z,101425.69
2018-09-05T13:02:12.079Z,101424.82
2018-09-05T13:04:41.139Z,101411.03
2018-09-05T13:07:10.109Z,101408.59
2018-09-05T13:09:39.078Z,101414.28
2018-09-05T13:12:08.128Z,101406.83
2018-09-05T13:14:37.078Z,101409.39
2018-09-05T13:17:06.019Z,101409.95
2018-09-05T13:19:35.019Z,101409.58
2018-09-05T13:22:04.332Z,101404.72
2018-09-05T13:24:33.258Z,101401.54
2018-09-05T13:27:02.283Z,101401.38
2018-09-05T13:29:31.180Z,101396.89
2018-09-05T13:32:00.800Z,101397.97
2018-09-05T13:34:29.712Z,101396.61
2018-09-05T13:36:58.691Z,101393.27
2018-09-05T13:39:27.651Z,101385.87
2018-09-05T13:41:56.572Z,101383.08
2018-09-05T13:44:25.487Z,101388.50
2018-09-05T13:46:54.440Z,101388.21
2018-09-05T13:49:23.423Z,101383.57
2018-09-05T13:51:57.580Z,101379.04
2018-09-05T13:54:26.535Z,101377.03
2018-09-05T13:56:55.505Z,101359.41
2018-09-05T13:59:24.474Z,101361.30
2018-09-05T14:01:53.645Z,101375.75
2018-09-05T14:04:23.769Z,101371.84
2018-09-05T14:06:52.691Z,101372.72
2018-09-05T14:09:21.638Z,101369.05
2018-09-05T14:11:50.639Z,101365.76
2018-09-05T14:14:19.599Z,101358.95
2018-09-05T14:16:48.603Z,101357.43
2018-09-05T14:19:17.500Z,101353.48
2018-09-05T14:21:46.458Z,101356.57
2018-09-05T14:24:15.355Z,101354.73
2018-09-05T14:26:44.270Z,101348.95
2018-09-05T14:29:13.302Z,101352.44
2018-09-05T14:31:42.429Z,101350.44
2018-09-05T14:34:11.436Z,101350.44
2018-09-05T14:36:40.349Z,101345.54
2018-09-05T14:39:11.948Z,101343.97
2018-09-05T14:41:41.047Z,101337.02
2018-09-05T14:44:10.282Z,101341.17
2018-09-05T14:46:39.245Z,101334.73
2018-09-05T14:49:08.172Z,101330.23
2018-09-05T14:51:37.179Z,101330.44
2018-09-05T14:54:10.063Z,101326.14
2018-09-05T14:56:39.006Z,101323.70
2018-09-05T14:59:07.920Z,101314.47
2018-09-05T15:01:36.952Z,101315.53
2018-09-05T15:04:05.955Z,101318.09
2018-09-05T15:06:34.981Z,101319.65
2018-09-05T15:09:04.660Z,101316.08
2018-09-05T15:11:33.594Z,101317.46
2018-09-05T15:14:02.577Z,101319.30
2018-09-05T15:16:31.470Z,101317.58
2018-09-05T15:19:00.562Z,101320.39
2018-09-05T15:21:29.534Z,101319.92
2018-09-05T15:23:58.469Z,101317.12
2018-09-05T15:26:27.439Z,101319.15
2018-09-05T15:28:56.379Z,101310.86
2018-09-05T15:31:25.315Z,101305.94
2018-09-05T15:33:54.211Z,101313.34
2018-09-05T15:36:23.169Z,101308.09
2018-09-05T15:38:52.456Z,101308.85
2018-09-05T15:41:21.371Z,101305.37
2018-09-05T15:43:50.263Z,101302.13
2018-09-05T15:46:19.227Z,101293.58
2018-09-05T15:48:48.129Z,101289.53
2018-09-05T15:51:17.060Z,101291.38
2018-09-05T15:53:46.026Z,101286.28
2018-09-05T15:56:14.962Z,101291.34
2018-09-05T15:58:44.107Z,101283.39
2018-09-05T16:01:13.323Z,101279.65
2018-09-05T16:03:42.333Z,101279.09
2018-09-05T16:06:11.187Z,101281.09
2018-09-05T16:08:40.115Z,101278.20
2018-09-05T16:11:09.081Z,101279.66
2018-09-05T16:13:38.253Z,101281.30
2018-09-05T16:16:07.223Z,101276.70
2018-09-05T16:18:36.180Z,101270.29
2018-09-05T16:21:05.234Z,101271.55
2018-09-05T16:23:34.139Z,101269.53
2018-09-05T16:26:03.102Z,101270.19
2018-09-05T16:28:32.036Z,101273.79
2018-09-05T16:31:00.964Z,101271.13
2018-09-05T16:33:29.897Z,101274.37
2018-09-05T16:35:58.806Z,101274.56
2018-09-05T16:38:27.763Z,101281.97
2018-09-05T16:40:56.694Z,101272.34
2018-09-05T16:43:25.737Z,101277.80
2018-09-05T16:45:54.799Z,101273.77
2018-09-05T16:48:23.736Z,101282.05
2018-09-05T16:50:52.793Z,101278.12
2018-09-05T16:53:21.730Z,101275.55
2018-09-05T16:55:50.647Z,101274.44
2018-09-05T16:58:19.675Z,101271.56
2018-09-05T17:00:48.777Z,101272.02
2018-09-05T17:03:17.801Z,101270.97
2018-09-05T17:05:46.767Z,101274.30
2018-09-05T17:08:15.739Z,101275.75
2018-09-05T17:10:44.695Z,101274.93
2018-09-05T17:13:13.642Z,101281.91
2018-09-05T17:15:42.580Z,101284.53
2018-09-05T17:18:11.574Z,101277.68
2018-09-05T17:20:40.542Z,101279.56
2018-09-05T17:23:10.129Z,101280.27
2018-09-05T17:25:39.122Z,101280.14
2018-09-05T17:28:08.084Z,101277.37
2018-09-05T17:30:37.047Z,101276.81
2018-09-05T17:33:05.999Z,101282.84
2018-09-05T17:35:35.127Z,101281.17
2018-09-05T17:38:04.407Z,101279.67
2018-09-05T17:40:33.400Z,101276.05
2018-09-05T17:43:02.367Z,101274.67
2018-09-05T17:45:31.353Z,101278.59
2018-09-05T17:48:00.313Z,101281.09
2018-09-05T17:50:29.258Z,101276.14
2018-09-05T17:52:58.224Z,101283.83
2018-09-05T17:55:27.125Z,101282.63
2018-09-05T17:57:56.377Z,101279.12
2018-09-05T18:00:25.294Z,101275.02
2018-09-05T18:02:54.298Z,101274.41
2018-09-05T18:05:23.259Z,101273.39
2018-09-05T18:07:52.218Z,101272.27
2018-09-05T18:10:21.123Z,101271.33
2018-09-05T18:12:50.056Z,101275.03
2018-09-05T18:15:19.023Z,101275.44
2018-09-05T18:17:48.298Z,101278.58
2018-09-05T18:20:17.248Z,101284.09
2018-09-05T18:22:46.795Z,101287.66
2018-09-05T18:25:15.839Z,101286.73
2018-09-05T18:27:44.798Z,101291.02
2018-09-05T18:30:13.773Z,101283.64
2018-09-05T18:32:42.763Z,101288.52
2018-09-05T18:35:11.807Z,101290.19
2018-09-05T18:37:40.784Z,101294.69
2018-09-05T18:40:09.840Z,101291.75
2018-09-05T18:42:38.794Z,101296.61
2018-09-05T18:45:08.304Z,101294.43
2018-09-05T18:47:37.245Z,101306.28
2018-09-05T18:50:06.250Z,101301.66
2018-09-05T18:52:35.282Z,101303.12
2018-09-05T18:55:04.220Z,101301.81
2018-09-05T18:57:33.182Z,101303.43
2018-09-05T19:00:02.137Z,101301.33
2018-09-05T19:02:31.136Z,101310.06
2018-09-05T19:05:00.099Z,101303.18
2018-09-05T19:07:29.326Z,101307.67
2018-09-05T19:09:58.315Z,101305.69
2018-09-05T19:12:27.772Z,101311.83
2018-09-05T19:14:56.773Z,101304.20
2018-09-05T19:17:25.742Z,101305.36
2018-09-05T19:19:54.740Z,101300.35
2018-09-05T19:22:23.768Z,101309.67
2018-09-05T19:24:52.741Z,101303.49
2018-09-05T19:27:21.789Z,101304.11
2018-09-05T19:29:50.769Z,101301.65
2018-09-05T19:32:20.889Z,101305.44
2018-09-05T19:34:49.883Z,101303.31
2018-09-05T19:37:19.681Z,101305.86
2018-09-05T19:39:48.908Z,101300.33
2018-09-05T19:42:17.888Z,101299.33
2018-09-05T19:44:46.854Z,101304.19
2018-09-05T19:47:16.476Z,101304.45
2018-09-05T19:49:45.469Z,101301.09
2018-09-05T19:52:14.425Z,101301.61
2018-09-05T19:54:43.399Z,101306.17
2018-09-05T19:57:13.211Z,101300.31
2018-09-05T19:59:42.175Z,101298.95
2018-09-05T20:02:11.142Z,101301.06
2018-09-05T20:04:40.150Z,101296.50
2018-09-05T20:07:09.130Z,101294.31
2018-09-05T20:09:38.086Z,101299.56
2018-09-05T20:12:07.011Z,101293.08
2018-09-05T20:14:36.033Z,101300.84
2018-09-05T20:17:05.223Z,101298.61
2018-09-05T20:19:34.187Z,101301.85
2018-09-05T20:22:03.152Z,101305.85
2018-09-05T20:24:32.146Z,101297.43
2018-09-05T20:27:01.065Z,101295.84
2018-09-05T20:29:30.386Z,101300.99
2018-09-05T20:31:59.373Z,101300.87
2018-09-05T20:34:28.421Z,101305.38
2018-09-05T20:36:57.418Z,101302.64
2018-09-05T20:39:26.391Z,101303.34
2018-09-05T20:41:55.356Z,101297.84
2018-09-05T20:44:24.351Z,101296.34
2018-09-05T20:46:53.283Z,101299.50
2018-09-05T20:49:22.293Z,101297.30
2018-09-05T20:51:51.260Z,101302.64
2018-09-05T20:54:20.176Z,101302.31
2018-09-05T20:56:49.916Z,101305.50
2018-09-05T20:59:18.929Z,101292.53
2018-09-05T21:01:47.854Z,101294.38
2018-09-05T21:04:16.845Z,101289.92
2018-09-05T21:06:45.790Z,101290.48
2018-09-05T21:09:14.796Z,101289.89
2018-09-05T21:11:43.850Z,101292.34
2018-09-05T21:14:12.786Z,101286.78
2018-09-05T21:16:41.737Z,101286.45
2018-09-05T21:19:10.652Z,101287.61
2018-09-05T21:21:39.716Z,101292.73
2018-09-05T21:24:08.732Z,101289.80
2018-09-05T21:26:37.819Z,101291.47
2018-09-05T21:29:06.783Z,101287.97
2018-09-05T21:31:35.742Z,101290.08
2018-09-05T21:34:04.692Z,101289.84
2018-09-05T21:36:33.851Z,101288.80
2018-09-05T21:39:02.846Z,101289.67
2018-09-05T21:41:31.820Z,101285.60
2018-09-05T21:44:00.834Z,101281.97
2018-09-05T21:46:29.820Z,101277.73
2018-09-05T21:48:58.809Z,101284.41
2018-09-05T21:51:28.102Z,101282.28
2018-09-05T21:53:57.028Z,101288.31
2018-09-05T21:56:25.996Z,101283.88
2018-09-05T21:58:54.989Z,101285.22
2018-09-05T22:01:24.361Z,101282.03
2018-09-05T22:03:53.564Z,101283.84
2018-09-05T22:06:22.614Z,101289.38
2018-09-05T22:08:51.678Z,101285.94
2018-09-05T22:11:26.894Z,101282.64
2018-09-05T22:13:56.578Z,101286.92
2018-09-05T22:16:25.840Z,101282.33
2018-09-05T22:18:54.958Z,101283.60
2018-09-05T22:21:23.872Z,101287.76
2018-09-05T22:23:54.522Z,101290.27
2018-09-05T22:26:23.746Z,101295.73
2018-09-05T22:28:53.523Z,101292.83
2018-09-05T22:31:22.993Z,101291.08
2018-09-05T22:33:52.548Z,101293.02
2018-09-05T22:36:23.804Z,101294.65
2018-09-05T22:38:52.792Z,101289.73
2018-09-05T22:41:21.861Z,101281.87
2018-09-05T22:44:02.013Z,101290.86
2018-09-05T22:46:42.402Z,101289.54
2018-09-05T22:49:24.460Z,101285.70
2018-09-05T22:52:16.693Z,101287.03
2018-09-05T22:57:05.744Z,101286.89
2018-09-05T22:59:47.488Z,101277.95
2018-09-05T23:02:57.796Z,101281.70
2018-09-05T23:05:54.845Z,101283.78
2018-09-05T23:08:37.619Z,101277.64
2018-09-05T23:11:18.681Z,101277.07
2018-09-05T23:13:59.858Z,101276.72
2018-09-05T23:16:40.501Z,101272.72
2018-09-05T23:19:32.437Z,101268.93
2018-09-05T23:22:01.343Z,101269.27
2018-09-05T23:24:30.264Z,101271.73
2018-09-05T23:26:59.225Z,101265.59
2018-09-05T23:29:28.128Z,101261.37
2018-09-05T23:31:57.047Z,101261.83
2018-09-05T23:34:25.974Z,101256.64
2018-09-05T23:36:55.083Z,101258.30
2018-09-05T23:39:24.046Z,101255.38
2018-09-05T23:41:52.990Z,101255.67
2018-09-05T23:44:21.916Z,101256.72
2018-09-05T23:46:50.887Z,101251.48
2018-09-05T23:49:19.800Z,101246.88
2018-09-05T23:51:48.751Z,101240.70
2018-09-05T23:54:17.751Z,101238.20
2018-09-05T23:56:46.677Z,101240.41
2018-09-05T23:59:15.663Z,101233.36
